sensor_id;sensor_type;location;lat;lon;timestamp;pressure;altitude;pressure_sealevel;temperature;humidity
83697;BME280;73677;54.530;18.484;2024-03-02T00:01:16;100645.50;;;8.97;81.56
83697;BME280;73677;54.530;18.484;2024-03-02T00:03:46;100649.28;;;8.96;81.51
83697;BME280;73677;54.530;18.484;2024-03-02T00:06:15;100647.00;;;8.93;81.65
83697;BME280;73677;54.530;18.484;2024-03-02T00:08:47;100639.03;;;8.85;81.75
83697;BME280;73677;54.530;18.484;2024-03-02T00:11:17;100647.44;;;8.90;81.53
83697;BME280;73677;54.530;18.484;2024-03-02T00:13:46;100651.47;;;8.87;81.62
83697;BME280;73677;54.530;18.484;2024-03-02T00:16:14;100638.81;;;8.86;81.77
83697;BME280;73677;54.530;18.484;2024-03-02T00:18:43;100646.00;;;8.81;81.79
83697;BME280;73677;54.530;18.484;2024-03-02T00:21:11;100653.16;;;8.88;81.54
83697;BME280;73677;54.530;18.484;2024-03-02T00:23:42;100649.38;;;8.83;81.75
83697;BME280;73677;54.530;18.484;2024-03-02T00:26:11;100644.13;;;8.81;81.73
83697;BME280;73677;54.530;18.484;2024-03-02T00:28:41;100644.16;;;8.75;81.96
83697;BME280;73677;54.530;18.484;2024-03-02T00:31:12;100644.78;;;8.77;81.91
83697;BME280;73677;54.530;18.484;2024-03-02T00:33:43;100636.75;;;8.75;81.71
83697;BME280;73677;54.530;18.484;2024-03-02T00:36:14;100646.00;;;8.81;81.46
83697;BME280;73677;54.530;18.484;2024-03-02T00:38:46;100643.75;;;8.71;81.49
83697;BME280;73677;54.530;18.484;2024-03-02T00:41:21;100646.28;;;8.73;81.25
83697;BME280;73677;54.530;18.484;2024-03-02T00:43:59;100628.38;;;8.64;81.11
83697;BME280;73677;54.530;18.484;2024-03-02T00:46:31;100641.41;;;8.75;81.42
83697;BME280;73677;54.530;18.484;2024-03-02T00:49:02;100656.09;;;8.87;81.16
83697;BME280;73677;54.530;18.484;2024-03-02T00:51:32;100647.69;;;8.82;81.08
83697;BME280;73677;54.530;18.484;2024-03-02T00:54:04;100645.22;;;8.74;80.85
83697;BME280;73677;54.530;18.484;2024-03-02T00:56:33;100640.16;;;8.71;81.11
83697;BME280;73677;54.530;18.484;2024-03-02T00:59:04;100607.19;;;8.53;81.16
83697;BME280;73677;54.530;18.484;2024-03-02T01:01:32;100629.00;;;8.72;81.11
83697;BME280;73677;54.530;18.484;2024-03-02T01:04:01;100628.38;;;8.64;81.33
83697;BME280;73677;54.530;18.484;2024-03-02T01:06:30;100634.09;;;8.62;82.05
83697;BME280;73677;54.530;18.484;2024-03-02T01:08:59;100625.88;;;8.62;81.62
83697;BME280;73677;54.530;18.484;2024-03-02T01:11:27;100623.34;;;8.61;81.61
83697;BME280;73677;54.530;18.484;2024-03-02T01:13:56;100617.41;;;8.70;81.36
83697;BME280;73677;54.530;18.484;2024-03-02T01:16:25;100624.19;;;8.68;81.39
83697;BME280;73677;54.530;18.484;2024-03-02T01:18:54;100632.88;;;8.58;81.74
83697;BME280;73677;54.530;18.484;2024-03-02T01:21:22;100627.84;;;8.48;81.89
83697;BME280;73677;54.530;18.484;2024-03-02T01:23:51;100630.56;;;8.55;81.96
83697;BME280;73677;54.530;18.484;2024-03-02T01:26:19;100627.63;;;8.50;82.00
83697;BME280;73677;54.530;18.484;2024-03-02T01:28:48;100615.81;;;8.49;82.11
83697;BME280;73677;54.530;18.484;2024-03-02T01:31:16;100629.22;;;8.64;81.42
83697;BME280;73677;54.530;18.484;2024-03-02T01:33:47;100626.56;;;8.51;81.76
83697;BME280;73677;54.530;18.484;2024-03-02T01:36:15;100627.22;;;8.46;82.23
83697;BME280;73677;54.530;18.484;2024-03-02T01:38:44;100620.44;;;8.56;82.00
83697;BME280;73677;54.530;18.484;2024-03-02T01:41:12;100619.19;;;8.52;81.96
83697;BME280;73677;54.530;18.484;2024-03-02T01:43:40;100625.72;;;8.57;81.64
83697;BME280;73677;54.530;18.484;2024-03-02T01:46:09;100608.72;;;8.42;81.88
83697;BME280;73677;54.530;18.484;2024-03-02T01:48:38;100605.13;;;8.41;82.10
83697;BME280;73677;54.530;18.484;2024-03-02T01:51:07;100609.75;;;8.41;82.44
83697;BME280;73677;54.530;18.484;2024-03-02T01:53:37;100607.50;;;8.31;82.27
83697;BME280;73677;54.530;18.484;2024-03-02T01:56:06;100618.41;;;8.38;82.21
83697;BME280;73677;54.530;18.484;2024-03-02T01:58:34;100624.31;;;8.35;82.40
83697;BME280;73677;54.530;18.484;2024-03-02T02:01:03;100619.22;;;8.45;82.06
83697;BME280;73677;54.530;18.484;2024-03-02T02:03:32;100618.22;;;8.33;82.46
83697;BME280;73677;54.530;18.484;2024-03-02T02:06:00;100616.53;;;8.25;82.84
83697;BME280;73677;54.530;18.484;2024-03-02T02:08:31;100611.88;;;8.32;82.84
83697;BME280;73677;54.530;18.484;2024-03-02T02:10:59;100626.22;;;8.28;82.64
83697;BME280;73677;54.530;18.484;2024-03-02T02:13:28;100607.97;;;8.08;83.07
83697;BME280;73677;54.530;18.484;2024-03-02T02:16:04;100589.66;;;8.02;83.06
83697;BME280;73677;54.530;18.484;2024-03-02T02:18:33;100619.09;;;8.20;83.14
83697;BME280;73677;54.530;18.484;2024-03-02T02:21:01;100611.91;;;8.26;82.55
83697;BME280;73677;54.530;18.484;2024-03-02T02:23:31;100608.72;;;8.29;82.72
83697;BME280;73677;54.530;18.484;2024-03-02T02:25:59;100623.09;;;8.31;82.99
83697;BME280;73677;54.530;18.484;2024-03-02T02:28:30;100629.34;;;8.38;82.67
83697;BME280;73677;54.530;18.484;2024-03-02T02:30:58;100616.94;;;8.42;82.14
83697;BME280;73677;54.530;18.484;2024-03-02T02:33:28;100606.44;;;8.19;82.59
83697;BME280;73677;54.530;18.484;2024-03-02T02:35:56;100617.38;;;8.26;83.19
83697;BME280;73677;54.530;18.484;2024-03-02T02:38:25;100614.88;;;8.31;82.89
83697;BME280;73677;54.530;18.484;2024-03-02T02:40:55;100622.81;;;8.39;82.94
83697;BME280;73677;54.530;18.484;2024-03-02T02:43:24;100617.78;;;8.29;82.52
83697;BME280;73677;54.530;18.484;2024-03-02T02:45:52;100621.84;;;8.14;83.60
83697;BME280;73677;54.530;18.484;2024-03-02T02:48:21;100608.56;;;8.17;83.38
83697;BME280;73677;54.530;18.484;2024-03-02T02:50:49;100615.91;;;8.23;83.20
83697;BME280;73677;54.530;18.484;2024-03-02T02:53:18;100612.41;;;8.03;83.86
83697;BME280;73677;54.530;18.484;2024-03-02T02:55:46;100607.56;;;7.98;84.23
83697;BME280;73677;54.530;18.484;2024-03-02T02:58:16;100595.56;;;7.99;84.01
83697;BME280;73677;54.530;18.484;2024-03-02T03:00:45;100600.81;;;8.01;84.28
83697;BME280;73677;54.530;18.484;2024-03-02T03:03:13;100602.09;;;8.05;84.05
83697;BME280;73677;54.530;18.484;2024-03-02T03:05:42;100585.03;;;8.03;84.12
83697;BME280;73677;54.530;18.484;2024-03-02T03:08:10;100585.28;;;7.95;83.57
83697;BME280;73677;54.530;18.484;2024-03-02T03:10:39;100596.63;;;8.05;83.66
83697;BME280;73677;54.530;18.484;2024-03-02T03:13:07;100591.16;;;7.98;83.93
83697;BME280;73677;54.530;18.484;2024-03-02T03:15:37;100587.31;;;8.06;84.00
83697;BME280;73677;54.530;18.484;2024-03-02T03:18:06;100600.63;;;7.96;84.15
83697;BME280;73677;54.530;18.484;2024-03-02T03:20:35;100605.03;;;7.97;84.60
83697;BME280;73677;54.530;18.484;2024-03-02T03:23:04;100596.22;;;7.95;84.25
83697;BME280;73677;54.530;18.484;2024-03-02T03:25:33;100597.28;;;7.94;84.39
83697;BME280;73677;54.530;18.484;2024-03-02T03:28:01;100604.25;;;7.90;84.29
83697;BME280;73677;54.530;18.484;2024-03-02T03:30:30;100594.53;;;7.94;84.73
83697;BME280;73677;54.530;18.484;2024-03-02T03:33:00;100601.91;;;8.00;84.14
83697;BME280;73677;54.530;18.484;2024-03-02T03:35:28;100598.53;;;7.98;84.17
83697;BME280;73677;54.530;18.484;2024-03-02T03:37:57;100607.13;;;8.01;84.16
83697;BME280;73677;54.530;18.484;2024-03-02T03:40:25;100591.59;;;7.95;84.57
83697;BME280;73677;54.530;18.484;2024-03-02T03:42:54;100604.19;;;8.03;84.12
83697;BME280;73677;54.530;18.484;2024-03-02T03:45:23;100592.19;;;8.04;84.27
83697;BME280;73677;54.530;18.484;2024-03-02T03:47:53;100584.00;;;7.97;84.48
83697;BME280;73677;54.530;18.484;2024-03-02T03:50:23;100583.16;;;7.90;84.98
83697;BME280;73677;54.530;18.484;2024-03-02T03:52:51;100583.19;;;7.84;84.57
83697;BME280;73677;54.530;18.484;2024-03-02T03:55:20;100588.66;;;7.84;85.44
83697;BME280;73677;54.530;18.484;2024-03-02T03:57:48;100608.25;;;7.81;85.23
83697;BME280;73677;54.530;18.484;2024-03-02T04:00:17;100604.25;;;7.83;85.23
83697;BME280;73677;54.530;18.484;2024-03-02T04:02:46;100604.66;;;7.80;85.14
83697;BME280;73677;54.530;18.484;2024-03-02T04:05:14;100585.31;;;7.82;85.49
83697;BME280;73677;54.530;18.484;2024-03-02T04:07:44;100596.25;;;7.88;84.61
83697;BME280;73677;54.530;18.484;2024-03-02T04:10:13;100602.56;;;7.89;85.10
83697;BME280;73677;54.530;18.484;2024-03-02T04:12:43;100597.94;;;7.83;85.17
83697;BME280;73677;54.530;18.484;2024-03-02T04:15:12;100591.63;;;7.82;85.60
83697;BME280;73677;54.530;18.484;2024-03-02T04:17:40;100598.34;;;7.86;84.93
83697;BME280;73677;54.530;18.484;2024-03-02T04:20:09;100550.44;;;7.44;85.14
83697;BME280;73677;54.530;18.484;2024-03-02T04:22:39;100609.91;;;7.88;84.88
83697;BME280;73677;54.530;18.484;2024-03-02T04:25:09;100614.34;;;7.89;85.17
83697;BME280;73677;54.530;18.484;2024-03-02T04:27:38;100585.75;;;7.65;85.42
83697;BME280;73677;54.530;18.484;2024-03-02T04:30:07;100613.31;;;7.84;84.77
83697;BME280;73677;54.530;18.484;2024-03-02T04:32:35;100618.53;;;7.92;85.03
83697;BME280;73677;54.530;18.484;2024-03-02T04:35:05;100618.13;;;7.75;84.87
83697;BME280;73677;54.530;18.484;2024-03-02T04:37:35;100620.28;;;7.73;85.80
83697;BME280;73677;54.530;18.484;2024-03-02T04:40:04;100628.88;;;7.77;85.58
83697;BME280;73677;54.530;18.484;2024-03-02T04:42:36;100581.78;;;7.55;85.50
83697;BME280;73677;54.530;18.484;2024-03-02T04:45:06;100623.81;;;7.87;85.03
83697;BME280;73677;54.530;18.484;2024-03-02T04:47:35;100631.81;;;7.82;85.34
83697;BME280;73677;54.530;18.484;2024-03-02T04:50:04;100630.78;;;7.76;85.29
83697;BME280;73677;54.530;18.484;2024-03-02T04:52:35;100631.41;;;7.65;86.11
83697;BME280;73677;54.530;18.484;2024-03-02T04:55:04;100630.81;;;7.63;86.22
83697;BME280;73677;54.530;18.484;2024-03-02T04:57:53;100597.56;;;7.46;85.90
83697;BME280;73677;54.530;18.484;2024-03-02T05:00:22;100628.69;;;7.72;85.86
83697;BME280;73677;54.530;18.484;2024-03-02T05:02:51;100618.19;;;7.69;85.77
83697;BME280;73677;54.530;18.484;2024-03-02T05:05:19;100617.94;;;7.77;85.34
83697;BME280;73677;54.530;18.484;2024-03-02T05:07:48;100615.19;;;7.77;85.38
83697;BME280;73677;54.530;18.484;2024-03-02T05:10:16;100629.47;;;7.85;84.99
83697;BME280;73677;54.530;18.484;2024-03-02T05:12:45;100621.72;;;7.89;84.52
83697;BME280;73677;54.530;18.484;2024-03-02T05:15:26;100609.09;;;7.75;85.18
83697;BME280;73677;54.530;18.484;2024-03-02T05:17:55;100620.66;;;7.83;85.14
83697;BME280;73677;54.530;18.484;2024-03-02T05:20:24;100615.19;;;7.77;85.03
83697;BME280;73677;54.530;18.484;2024-03-02T05:22:53;100618.78;;;7.71;85.57
83697;BME280;73677;54.530;18.484;2024-03-02T05:25:21;100621.72;;;7.76;85.06
83697;BME280;73677;54.530;18.484;2024-03-02T05:27:50;100614.78;;;7.80;85.03
83697;BME280;73677;54.530;18.484;2024-03-02T05:30:18;100625.94;;;7.72;85.35
83697;BME280;73677;54.530;18.484;2024-03-02T05:32:49;100624.69;;;7.61;85.89
83697;BME280;73677;54.530;18.484;2024-03-02T05:35:17;100605.53;;;7.54;85.47
83697;BME280;73677;54.530;18.484;2024-03-02T05:37:46;100620.06;;;7.68;85.22
83697;BME280;73677;54.530;18.484;2024-03-02T05:40:14;100626.59;;;7.67;85.24
83697;BME280;73677;54.530;18.484;2024-03-02T05:42:43;100634.59;;;7.62;85.78
83697;BME280;73677;54.530;18.484;2024-03-02T05:45:12;100632.69;;;7.62;85.54
83697;BME280;73677;54.530;18.484;2024-03-02T05:47:40;100635.84;;;7.66;85.86
83697;BME280;73677;54.530;18.484;2024-03-02T05:50:10;100641.94;;;7.68;85.38
83697;BME280;73677;54.530;18.484;2024-03-02T05:52:39;100639.66;;;7.58;85.76
83697;BME280;73677;54.530;18.484;2024-03-02T05:55:07;100633.09;;;7.66;85.38
83697;BME280;73677;54.530;18.484;2024-03-02T05:57:36;100633.94;;;7.60;85.70
83697;BME280;73677;54.530;18.484;2024-03-02T06:00:22;100642.16;;;7.66;86.06
83697;BME280;73677;54.530;18.484;2024-03-02T06:02:51;100643.84;;;7.68;85.76
83697;BME280;73677;54.530;18.484;2024-03-02T06:05:21;100644.28;;;7.58;85.73
83697;BME280;73677;54.530;18.484;2024-03-02T06:07:49;100651.84;;;7.62;85.59
83697;BME280;73677;54.530;18.484;2024-03-02T06:10:18;100648.88;;;7.71;85.43
83697;BME280;73677;54.530;18.484;2024-03-02T06:12:48;100666.16;;;7.78;85.11
83697;BME280;73677;54.530;18.484;2024-03-02T06:15:16;100665.91;;;7.86;85.24
83697;BME280;73677;54.530;18.484;2024-03-02T06:17:46;100666.56;;;7.81;84.56
83697;BME280;73677;54.530;18.484;2024-03-02T06:20:14;100673.31;;;7.79;84.71
83697;BME280;73677;54.530;18.484;2024-03-02T06:22:44;100668.25;;;7.82;84.58
83697;BME280;73677;54.530;18.484;2024-03-02T06:25:14;100681.28;;;7.93;85.15
83697;BME280;73677;54.530;18.484;2024-03-02T06:27:42;100669.09;;;7.89;84.53
83697;BME280;73677;54.530;18.484;2024-03-02T06:30:12;100684.22;;;7.92;84.86
83697;BME280;73677;54.530;18.484;2024-03-02T06:32:40;100682.75;;;7.89;84.63
83697;BME280;73677;54.530;18.484;2024-03-02T06:35:09;100676.22;;;7.97;84.89
83697;BME280;73677;54.530;18.484;2024-03-02T06:37:38;100666.50;;;8.01;84.55
83697;BME280;73677;54.530;18.484;2024-03-02T06:40:09;100676.22;;;8.03;84.30
83697;BME280;73677;54.530;18.484;2024-03-02T06:42:37;100664.66;;;7.95;84.50
83697;BME280;73677;54.530;18.484;2024-03-02T06:45:06;100677.91;;;7.91;84.74
83697;BME280;73677;54.530;18.484;2024-03-02T06:47:35;100676.44;;;7.89;84.42
83697;BME280;73677;54.530;18.484;2024-03-02T06:50:04;100675.38;;;7.96;84.77
83697;BME280;73677;54.530;18.484;2024-03-02T06:52:34;100673.28;;;7.85;84.63
83697;BME280;73677;54.530;18.484;2024-03-02T06:55:03;100669.47;;;7.99;84.27
83697;BME280;73677;54.530;18.484;2024-03-02T06:57:34;100677.63;;;8.19;84.24
83697;BME280;73677;54.530;18.484;2024-03-02T07:00:03;100651.31;;;8.12;83.67
83697;BME280;73677;54.530;18.484;2024-03-02T07:02:32;100654.50;;;8.15;82.82
83697;BME280;73677;54.530;18.484;2024-03-02T07:05:01;100666.47;;;8.21;83.34
83697;BME280;73677;54.530;18.484;2024-03-02T07:07:29;100669.44;;;8.19;83.37
83697;BME280;73677;54.530;18.484;2024-03-02T07:09:58;100661.47;;;7.98;83.90
83697;BME280;73677;54.530;18.484;2024-03-02T07:12:27;100674.06;;;8.25;83.06
83697;BME280;73677;54.530;18.484;2024-03-02T07:14:57;100682.63;;;8.48;82.51
83697;BME280;73677;54.530;18.484;2024-03-02T07:17:45;100680.25;;;8.59;81.68
83697;BME280;73677;54.530;18.484;2024-03-02T07:20:14;100674.72;;;8.78;81.12
83697;BME280;73677;54.530;18.484;2024-03-02T07:22:42;100631.09;;;8.70;80.42
83697;BME280;73677;54.530;18.484;2024-03-02T07:25:11;100666.69;;;9.46;78.76
83697;BME280;73677;54.530;18.484;2024-03-02T07:27:43;100667.06;;;10.17;75.96
83697;BME280;73677;54.530;18.484;2024-03-02T07:30:15;100659.41;;;11.34;72.59
83697;BME280;73677;54.530;18.484;2024-03-02T07:32:45;100641.19;;;12.61;67.78
83697;BME280;73677;54.530;18.484;2024-03-02T07:35:13;100646.09;;;12.59;66.29
83697;BME280;73677;54.530;18.484;2024-03-02T07:37:42;100672.94;;;11.35;69.78
83697;BME280;73677;54.530;18.484;2024-03-02T07:40:11;100674.53;;;10.83;71.91
83697;BME280;73677;54.530;18.484;2024-03-02T07:42:41;100630.22;;;9.39;76.35
83697;BME280;73677;54.530;18.484;2024-03-02T07:45:10;100659.84;;;9.30;77.69
83697;BME280;73677;54.530;18.484;2024-03-02T07:47:40;100671.19;;;9.34;78.27
83697;BME280;73677;54.530;18.484;2024-03-02T07:50:09;100668.72;;;9.26;78.70
83697;BME280;73677;54.530;18.484;2024-03-02T07:52:38;100666.19;;;8.93;79.65
83697;BME280;73677;54.530;18.484;2024-03-02T07:55:07;100658.94;;;8.74;81.06
83697;BME280;73677;54.530;18.484;2024-03-02T07:57:35;100667.19;;;8.67;81.07
83697;BME280;73677;54.530;18.484;2024-03-02T08:00:05;100684.94;;;8.52;81.60
83697;BME280;73677;54.530;18.484;2024-03-02T08:02:34;100681.44;;;8.31;81.95
83697;BME280;73677;54.530;18.484;2024-03-02T08:05:04;100667.69;;;8.44;82.25
83697;BME280;73677;54.530;18.484;2024-03-02T08:07:33;100697.66;;;8.06;82.54
83697;BME280;73677;54.530;18.484;2024-03-02T08:10:01;100702.34;;;7.99;83.54
83697;BME280;73677;54.530;18.484;2024-03-02T08:12:30;100689.22;;;8.21;82.98
83697;BME280;73677;54.530;18.484;2024-03-02T08:14:58;100701.44;;;8.19;82.32
83697;BME280;73677;54.530;18.484;2024-03-02T08:17:27;100706.72;;;8.27;82.58
83697;BME280;73677;54.530;18.484;2024-03-02T08:19:55;100698.25;;;8.22;82.71
83697;BME280;73677;54.530;18.484;2024-03-02T08:22:26;100708.19;;;8.16;83.32
83697;BME280;73677;54.530;18.484;2024-03-02T08:24:54;100706.91;;;8.12;82.97
83697;BME280;73677;54.530;18.484;2024-03-02T08:27:23;100715.34;;;8.24;83.11
83697;BME280;73677;54.530;18.484;2024-03-02T08:29:52;100723.16;;;8.20;82.71
83697;BME280;73677;54.530;18.484;2024-03-02T08:32:21;100698.91;;;8.17;83.18
83697;BME280;73677;54.530;18.484;2024-03-02T08:34:49;100693.84;;;8.34;81.87
83697;BME280;73677;54.530;18.484;2024-03-02T08:37:18;100709.44;;;8.27;82.41
83697;BME280;73677;54.530;18.484;2024-03-02T08:39:48;100703.53;;;8.17;82.42
83697;BME280;73677;54.530;18.484;2024-03-02T08:42:17;100693.06;;;8.00;81.96
83697;BME280;73677;54.530;18.484;2024-03-02T08:44:45;100726.13;;;8.05;83.24
83697;BME280;73677;54.530;18.484;2024-03-02T08:47:14;100718.28;;;8.29;82.68
83697;BME280;73677;54.530;18.484;2024-03-02T08:49:42;100701.19;;;8.46;81.67
83697;BME280;73677;54.530;18.484;2024-03-02T08:52:11;100713.84;;;8.47;81.30
83697;BME280;73677;54.530;18.484;2024-03-02T08:54:40;100708.88;;;8.69;80.59
83697;BME280;73677;54.530;18.484;2024-03-02T08:57:10;100686.91;;;8.82;79.98
83697;BME280;73677;54.530;18.484;2024-03-02T08:59:38;100680.19;;;8.78;80.03
83697;BME280;73677;54.530;18.484;2024-03-02T09:02:07;100646.31;;;8.66;79.59
83697;BME280;73677;54.530;18.484;2024-03-02T09:04:35;100695.50;;;8.92;79.36
83697;BME280;73677;54.530;18.484;2024-03-02T09:07:04;100700.91;;;9.06;79.32
83697;BME280;73677;54.530;18.484;2024-03-02T09:09:34;100710.09;;;8.86;79.81
83697;BME280;73677;54.530;18.484;2024-03-02T09:12:03;100707.53;;;8.91;79.43
83697;BME280;73677;54.530;18.484;2024-03-02T09:14:34;100711.94;;;8.99;79.00
83697;BME280;73677;54.530;18.484;2024-03-02T09:17:04;100710.16;;;9.11;78.75
83697;BME280;73677;54.530;18.484;2024-03-02T09:19:32;100716.59;;;8.92;78.71
83697;BME280;73677;54.530;18.484;2024-03-02T09:22:01;100722.84;;;8.68;79.59
83697;BME280;73677;54.530;18.484;2024-03-02T09:24:30;100680.34;;;8.39;80.51
83697;BME280;73677;54.530;18.484;2024-03-02T09:26:59;100697.63;;;8.39;80.30
83697;BME280;73677;54.530;18.484;2024-03-02T09:29:27;100718.03;;;8.43;80.55
83697;BME280;73677;54.530;18.484;2024-03-02T09:31:58;100709.16;;;8.61;79.95
83697;BME280;73677;54.530;18.484;2024-03-02T09:34:26;100710.88;;;8.49;80.53
83697;BME280;73677;54.530;18.484;2024-03-02T09:36:55;100707.63;;;8.72;80.26
83697;BME280;73677;54.530;18.484;2024-03-02T09:39:23;100709.19;;;8.99;79.70
83697;BME280;73677;54.530;18.484;2024-03-02T09:41:53;100719.84;;;8.76;79.52
83697;BME280;73677;54.530;18.484;2024-03-02T09:44:22;100727.38;;;8.87;79.72
83697;BME280;73677;54.530;18.484;2024-03-02T09:46:52;100728.88;;;8.83;79.53
83697;BME280;73677;54.530;18.484;2024-03-02T09:49:22;100722.00;;;8.61;80.65
83697;BME280;73677;54.530;18.484;2024-03-02T09:51:51;100734.38;;;8.76;79.89
83697;BME280;73677;54.530;18.484;2024-03-02T09:54:19;100746.00;;;8.72;80.05
83697;BME280;73677;54.530;18.484;2024-03-02T09:56:50;100719.84;;;8.69;79.74
83697;BME280;73677;54.530;18.484;2024-03-02T09:59:19;100750.34;;;8.92;79.24
83697;BME280;73677;54.530;18.484;2024-03-02T10:01:58;100742.31;;;8.91;79.87
83697;BME280;73677;54.530;18.484;2024-03-02T10:04:30;100743.81;;;9.31;78.12
83697;BME280;73677;54.530;18.484;2024-03-02T10:07:10;100737.59;;;9.43;77.56
83697;BME280;73677;54.530;18.484;2024-03-02T10:09:40;100747.88;;;9.54;77.02
83697;BME280;73677;54.530;18.484;2024-03-02T10:12:10;100711.84;;;9.12;77.87
83697;BME280;73677;54.530;18.484;2024-03-02T10:14:39;100748.16;;;9.46;77.30
83697;BME280;73677;54.530;18.484;2024-03-02T10:17:09;100756.19;;;9.03;78.85
83697;BME280;73677;54.530;18.484;2024-03-02T10:19:39;100742.91;;;9.38;78.20
83697;BME280;73677;54.530;18.484;2024-03-02T10:22:09;100746.44;;;9.76;76.24
83697;BME280;73677;54.530;18.484;2024-03-02T10:24:40;100750.25;;;9.44;77.53
83697;BME280;73677;54.530;18.484;2024-03-02T10:27:10;100729.44;;;9.36;77.35
83697;BME280;73677;54.530;18.484;2024-03-02T10:29:39;100729.28;;;10.05;76.09
83697;BME280;73677;54.530;18.484;2024-03-02T10:32:09;100734.94;;;10.10;74.61
83697;BME280;73677;54.530;18.484;2024-03-02T10:34:42;100737.31;;;10.50;73.76
83697;BME280;73677;54.530;18.484;2024-03-02T10:37:11;100740.19;;;10.37;73.39
83697;BME280;73677;54.530;18.484;2024-03-02T10:39:41;100742.53;;;10.15;74.96
83697;BME280;73677;54.530;18.484;2024-03-02T10:42:11;100734.50;;;10.38;73.79
83697;BME280;73677;54.530;18.484;2024-03-02T10:44:40;100747.69;;;10.48;73.55
83697;BME280;73677;54.530;18.484;2024-03-02T10:47:12;100738.91;;;10.57;73.07
83697;BME280;73677;54.530;18.484;2024-03-02T10:49:44;100748.09;;;10.51;73.31
83697;BME280;73677;54.530;18.484;2024-03-02T10:52:15;100744.88;;;10.54;73.26
83697;BME280;73677;54.530;18.484;2024-03-02T10:54:44;100733.56;;;10.99;72.06
83697;BME280;73677;54.530;18.484;2024-03-02T10:57:16;100732.50;;;11.30;70.17
83697;BME280;73677;54.530;18.484;2024-03-02T10:59:53;100726.03;;;11.36;70.52
83697;BME280;73677;54.530;18.484;2024-03-02T11:02:25;100718.84;;;11.23;70.75
83697;BME280;73677;54.530;18.484;2024-03-02T11:04:55;100705.16;;;10.69;72.92
83697;BME280;73677;54.530;18.484;2024-03-02T11:07:25;100714.69;;;11.32;71.32
83697;BME280;73677;54.530;18.484;2024-03-02T11:09:59;100701.47;;;11.64;69.91
83697;BME280;73677;54.530;18.484;2024-03-02T11:12:29;100704.88;;;11.89;68.77
83697;BME280;73677;54.530;18.484;2024-03-02T11:14:58;100725.50;;;11.57;70.08
83697;BME280;73677;54.530;18.484;2024-03-02T11:17:28;100721.22;;;11.61;69.95
83697;BME280;73677;54.530;18.484;2024-03-02T11:19:58;100715.66;;;11.79;69.26
83697;BME280;73677;54.530;18.484;2024-03-02T11:22:27;100720.34;;;11.49;70.58
83697;BME280;73677;54.530;18.484;2024-03-02T11:24:56;100722.03;;;11.20;71.64
83697;BME280;73677;54.530;18.484;2024-03-02T11:27:59;100717.25;;;11.57;70.98
83697;BME280;73677;54.530;18.484;2024-03-02T11:30:49;100703.66;;;11.74;69.46
83697;BME280;73677;54.530;18.484;2024-03-02T11:33:24;100714.22;;;11.35;70.98
83697;BME280;73677;54.530;18.484;2024-03-02T11:35:56;100715.84;;;11.25;71.86
83697;BME280;73677;54.530;18.484;2024-03-02T11:38:30;100700.94;;;11.85;70.73
83697;BME280;73677;54.530;18.484;2024-03-02T11:41:01;100642.50;;;11.95;68.83
83697;BME280;73677;54.530;18.484;2024-03-02T11:43:31;100693.94;;;12.64;67.96
83697;BME280;73677;54.530;18.484;2024-03-02T11:46:00;100689.66;;;12.97;65.66
83697;BME280;73677;54.530;18.484;2024-03-02T11:48:35;100671.47;;;12.09;67.87
83697;BME280;73677;54.530;18.484;2024-03-02T11:51:06;100696.09;;;12.62;67.13
83697;BME280;73677;54.530;18.484;2024-03-02T11:53:38;100698.13;;;12.67;67.66
83697;BME280;73677;54.530;18.484;2024-03-02T11:56:09;100690.38;;;12.92;66.75
83697;BME280;73677;54.530;18.484;2024-03-02T11:58:39;100690.84;;;12.61;67.42
83697;BME280;73677;54.530;18.484;2024-03-02T12:01:10;100702.13;;;12.36;68.38
83697;BME280;73677;54.530;18.484;2024-03-02T12:03:39;100713.19;;;12.24;68.05
83697;BME280;73677;54.530;18.484;2024-03-02T12:06:09;100680.59;;;11.86;68.64
83697;BME280;73677;54.530;18.484;2024-03-02T12:08:38;100691.94;;;11.78;69.19
83697;BME280;73677;54.530;18.484;2024-03-02T12:11:07;100710.03;;;11.74;70.06
83697;BME280;73677;54.530;18.484;2024-03-02T12:13:36;100709.56;;;11.47;70.96
83697;BME280;73677;54.530;18.484;2024-03-02T12:16:05;100697.13;;;11.45;70.93
83697;BME280;73677;54.530;18.484;2024-03-02T12:18:34;100705.56;;;11.32;72.15
83697;BME280;73677;54.530;18.484;2024-03-02T12:21:03;100709.81;;;11.46;71.20
83697;BME280;73677;54.530;18.484;2024-03-02T12:23:35;100717.06;;;11.29;72.08
83697;BME280;73677;54.530;18.484;2024-03-02T12:26:04;100719.59;;;11.42;71.78
83697;BME280;73677;54.530;18.484;2024-03-02T12:28:34;100724.03;;;11.43;72.33
83697;BME280;73677;54.530;18.484;2024-03-02T12:31:03;100733.09;;;11.32;71.51
83697;BME280;73677;54.530;18.484;2024-03-02T12:33:32;100732.72;;;10.80;73.44
83697;BME280;73677;54.530;18.484;2024-03-02T12:36:01;100733.66;;;10.56;74.64
83697;BME280;73677;54.530;18.484;2024-03-02T12:38:30;100737.22;;;10.38;75.79
83697;BME280;73677;54.530;18.484;2024-03-02T12:41:00;100731.22;;;10.48;75.86
83697;BME280;73677;54.530;18.484;2024-03-02T12:43:30;100716.47;;;10.42;75.88
83697;BME280;73677;54.530;18.484;2024-03-02T12:45:59;100727.84;;;10.64;75.35
83697;BME280;73677;54.530;18.484;2024-03-02T12:48:28;100729.91;;;10.87;74.40
83697;BME280;73677;54.530;18.484;2024-03-02T12:50:57;100727.59;;;11.02;74.07
83697;BME280;73677;54.530;18.484;2024-03-02T12:53:26;100722.22;;;10.77;74.89
83697;BME280;73677;54.530;18.484;2024-03-02T12:55:54;100723.88;;;10.78;74.93
83697;BME280;73677;54.530;18.484;2024-03-02T12:58:24;100732.03;;;10.85;74.77
83697;BME280;73677;54.530;18.484;2024-03-02T13:01:05;100722.28;;;10.71;75.39